createdAt,value
2017-07-06T00:01:41.942Z,77.20
2017-07-06T00:04:10.268Z,77.10
2017-07-06T00:06:38.584Z,77.30
2017-07-06T00:09:06.927Z,77.50
2017-07-06T00:11:35.250Z,77.70
2017-07-06T00:14:03.595Z,78.30
2017-07-06T00:16:31.908Z,78.30
2017-07-06T00:19:00.244Z,78.40
2017-07-06T00:21:28.560Z,78.30
2017-07-06T00:23:56.884Z,78.50
2017-07-06T00:26:25.228Z,78.80
2017-07-06T00:28:53.546Z,79.00
2017-07-06T00:31:21.888Z,79.20
2017-07-06T00:33:50.208Z,79.30
2017-07-06T00:36:18.549Z,79.30
2017-07-06T00:38:46.894Z,79.50
2017-07-06T00:41:15.235Z,79.40
2017-07-06T00:43:43.556Z,79.20
2017-07-06T00:46:11.880Z,79.10
2017-07-06T00:48:40.226Z,79.20
2017-07-06T00:51:08.552Z,79.10
2017-07-06T00:53:36.900Z,79.10
2017-07-06T00:56:05.216Z,78.90
2017-07-06T00:58:33.567Z,78.80
2017-07-06T01:01:01.880Z,78.90
2017-07-06T01:03:30.203Z,78.90
2017-07-06T01:05:57.777Z,78.90
2017-07-06T01:08:26.104Z,79.20
2017-07-06T01:10:54.457Z,79.20
2017-07-06T01:13:22.772Z,79.50
2017-07-06T01:15:51.108Z,79.40
2017-07-06T01:18:19.429Z,79.70
2017-07-06T01:20:47.776Z,79.80
2017-07-06T01:23:16.099Z,79.90
2017-07-06T01:25:44.414Z,79.90
2017-07-06T01:28:12.761Z,79.90
2017-07-06T01:30:41.087Z,80.10
2017-07-06T01:33:09.432Z,80.30
2017-07-06T01:35:37.756Z,80.40
2017-07-06T01:38:06.107Z,80.60
2017-07-06T01:40:34.425Z,80.70
2017-07-06T01:43:02.791Z,80.60
2017-07-06T01:45:31.111Z,80.60
2017-07-06T01:47:59.438Z,80.60
2017-07-06T01:50:27.789Z,80.50
2017-07-06T01:53:02.113Z,81.50
2017-07-06T01:55:30.443Z,81.80
2017-07-06T01:57:58.771Z,81.10
2017-07-06T02:00:27.123Z,81.00
2017-07-06T02:02:55.448Z,81.00
2017-07-06T02:05:23.801Z,81.00
2017-07-06T02:07:52.123Z,80.80
2017-07-06T02:10:20.442Z,80.70
2017-07-06T02:12:48.781Z,80.90
2017-07-06T02:15:17.100Z,81.00
2017-07-06T02:17:45.445Z,81.10
2017-07-06T02:20:13.767Z,80.80
2017-07-06T02:22:42.112Z,80.90
2017-07-06T02:25:10.428Z,81.00
2017-07-06T02:27:38.774Z,81.10
2017-07-06T02:30:07.094Z,81.30
2017-07-06T02:32:35.411Z,81.10
2017-07-06T02:35:03.761Z,81.10
2017-07-06T02:37:32.083Z,81.10
2017-07-06T02:40:00.429Z,81.20
2017-07-06T02:42:28.756Z,81.10
2017-07-06T02:44:57.091Z,81.40
2017-07-06T02:47:25.405Z,81.60
2017-07-06T02:49:53.755Z,81.40
2017-07-06T02:52:22.090Z,81.60
2017-07-06T02:54:50.403Z,81.70
2017-07-06T02:57:18.745Z,81.80
2017-07-06T02:59:47.069Z,81.70
2017-07-06T03:02:14.644Z,81.70
2017-07-06T03:04:42.960Z,81.80
2017-07-06T03:07:11.318Z,81.70
2017-07-06T03:09:39.645Z,81.80
2017-07-06T03:12:08.021Z,81.80
2017-07-06T03:14:36.345Z,81.90
2017-07-06T03:17:04.660Z,82.00
2017-07-06T03:19:33.007Z,81.90
2017-07-06T03:22:01.331Z,81.90
2017-07-06T03:24:29.672Z,81.70
2017-07-06T03:26:57.987Z,81.70
2017-07-06T03:29:26.328Z,81.60
2017-07-06T03:31:54.645Z,81.60
2017-07-06T03:34:22.990Z,81.70
2017-07-06T03:36:51.302Z,81.70
2017-07-06T03:39:19.644Z,81.60
2017-07-06T03:41:47.988Z,81.50
2017-07-06T03:44:16.308Z,81.50
2017-07-06T03:46:43.891Z,81.50
2017-07-06T03:49:12.219Z,81.50
2017-07-06T03:51:40.570Z,81.50
2017-07-06T03:54:08.897Z,82.00
2017-07-06T03:56:37.270Z,81.60
2017-07-06T03:59:05.585Z,81.50
2017-07-06T04:01:33.926Z,81.30
2017-07-06T04:04:02.262Z,81.10
2017-07-06T04:06:30.627Z,80.90
2017-07-06T04:08:58.975Z,80.80
2017-07-06T04:11:26.532Z,80.80
2017-07-06T04:13:54.881Z,79.00
2017-07-06T04:16:23.201Z,77.40
2017-07-06T04:37:53.039Z,74.00
2017-07-06T04:40:21.352Z,75.00
2017-07-06T04:42:49.693Z,74.40
2017-07-06T04:45:18.016Z,72.90
2017-07-06T04:47:46.361Z,71.10
2017-07-06T04:50:14.686Z,69.30
2017-07-06T04:52:43.055Z,67.50
2017-07-06T04:55:11.400Z,66.40
2017-07-06T04:57:39.721Z,65.10
2017-07-06T05:00:08.060Z,63.90
2017-07-06T05:02:36.380Z,63.00
2017-07-06T05:05:04.757Z,61.90
2017-07-06T05:07:33.079Z,61.40
2017-07-06T05:10:01.529Z,60.90
2017-07-06T05:12:29.855Z,60.60
2017-07-06T05:14:58.176Z,60.40
2017-07-06T05:17:26.987Z,60.20
2017-07-06T05:19:55.326Z,60.00
2017-07-06T05:22:23.669Z,60.70
2017-07-06T05:24:51.264Z,60.70
2017-07-06T05:27:19.612Z,63.60
2017-07-06T05:29:47.937Z,64.50
2017-07-06T05:32:16.289Z,65.50
2017-07-06T05:34:44.668Z,66.10
2017-07-06T05:37:12.992Z,66.40
2017-07-06T05:39:41.339Z,66.90
2017-07-06T05:42:08.905Z,66.90
2017-07-06T05:44:37.308Z,67.00
2017-07-06T05:47:05.631Z,66.70
2017-07-06T05:49:33.966Z,66.70
2017-07-06T05:52:02.284Z,66.60
2017-07-06T05:54:30.692Z,66.60
2017-07-06T05:56:59.025Z,66.50
2017-07-06T05:59:27.449Z,66.40
2017-07-06T06:01:55.783Z,66.10
2017-07-06T06:04:24.101Z,66.10
2017-07-06T06:06:52.446Z,66.50
2017-07-06T06:09:20.832Z,66.60
2017-07-06T06:11:49.240Z,66.30
2017-07-06T06:14:17.589Z,65.90
2017-07-06T06:16:45.913Z,65.60
2017-07-06T06:19:14.269Z,65.30
2017-07-06T06:21:42.595Z,64.90
2017-07-06T06:24:10.933Z,65.20
2017-07-06T06:26:39.256Z,64.80
2017-07-06T06:29:07.674Z,64.50
2017-07-06T06:31:36.001Z,64.00
2017-07-06T06:34:04.347Z,65.20
2017-07-06T06:36:32.691Z,65.80
2017-07-06T06:39:01.015Z,64.80
2017-07-06T06:41:29.365Z,64.30
2017-07-06T06:43:57.685Z,63.40
2017-07-06T06:46:26.022Z,62.70
2017-07-06T06:48:54.341Z,62.50
2017-07-06T06:51:22.682Z,62.20
2017-07-06T06:53:50.993Z,62.00
2017-07-06T06:56:19.341Z,61.40
2017-07-06T06:58:47.662Z,61.00
2017-07-06T07:01:15.995Z,61.00
2017-07-06T07:03:44.340Z,59.90
2017-07-06T07:06:12.661Z,59.60
2017-07-06T07:08:40.233Z,59.60
2017-07-06T07:11:08.555Z,58.70
2017-07-06T07:13:36.898Z,58.10
2017-07-06T07:16:05.213Z,57.70
2017-07-06T07:18:33.566Z,57.10
2017-07-06T07:21:01.878Z,56.70
2017-07-06T07:23:30.197Z,56.20
2017-07-06T07:25:58.536Z,55.90
2017-07-06T07:28:26.873Z,54.30
2017-07-06T07:30:54.446Z,54.30
2017-07-06T07:33:22.763Z,53.70
2017-07-06T07:35:51.132Z,53.20
2017-07-06T07:38:19.453Z,53.10
2017-07-06T07:40:47.840Z,52.10
2017-07-06T07:43:16.353Z,51.80
2017-07-06T07:45:44.732Z,52.00
2017-07-06T07:48:13.069Z,51.90
2017-07-06T07:50:41.389Z,50.50
2017-07-06T07:53:08.956Z,50.40
2017-07-06T07:55:37.277Z,47.00
2017-07-06T07:58:05.627Z,47.60
2017-07-06T08:00:34.095Z,48.10
2017-07-06T08:03:02.440Z,46.60
2017-07-06T08:05:30.758Z,46.00
2017-07-06T08:07:59.072Z,43.30
2017-07-06T08:10:26.655Z,43.20
2017-07-06T08:12:54.987Z,41.50
2017-07-06T08:15:23.328Z,41.60
2017-07-06T08:17:51.647Z,41.80
2017-07-06T08:20:19.987Z,41.90
2017-07-06T08:22:48.294Z,41.20
2017-07-06T08:25:16.665Z,40.80
2017-07-06T08:27:44.981Z,40.70
2017-07-06T08:30:13.299Z,40.70
2017-07-06T08:32:41.650Z,40.60
2017-07-06T08:35:09.974Z,40.90
2017-07-06T08:37:38.324Z,40.60
2017-07-06T08:40:06.694Z,40.00
2017-07-06T08:42:35.023Z,41.00
2017-07-06T08:45:03.344Z,40.80
2017-07-06T08:47:31.684Z,39.20
2017-07-06T08:49:59.996Z,38.70
2017-07-06T08:52:28.309Z,39.10
2017-07-06T08:54:56.645Z,39.40
2017-07-06T08:57:24.958Z,40.90
2017-07-06T08:59:53.291Z,40.00
2017-07-06T09:02:21.608Z,39.70
2017-07-06T09:04:49.932Z,38.90
2017-07-06T09:07:18.240Z,39.60
2017-07-06T09:09:46.597Z,39.10
2017-07-06T09:12:14.908Z,38.70
2017-07-06T09:14:43.228Z,37.00
2017-07-06T09:17:11.564Z,37.30
2017-07-06T09:19:39.876Z,36.60
2017-07-06T09:22:07.449Z,36.50
2017-07-06T09:24:35.757Z,36.50
2017-07-06T09:27:04.088Z,36.30
2017-07-06T09:29:32.420Z,36.40
2017-07-06T09:32:00.764Z,35.60
2017-07-06T09:34:29.088Z,35.40
2017-07-06T09:36:57.403Z,35.40
2017-07-06T09:39:25.747Z,34.90
2017-07-06T09:41:54.060Z,35.30
2017-07-06T09:44:22.432Z,35.10
2017-07-06T09:46:50.740Z,35.20
2017-07-06T09:49:19.073Z,35.40
2017-07-06T09:51:47.390Z,35.10
2017-07-06T09:54:15.737Z,34.00
2017-07-06T09:56:44.075Z,33.20
2017-07-06T09:59:12.390Z,32.60
2017-07-06T10:01:40.719Z,32.10
2017-07-06T10:04:09.027Z,31.50
2017-07-06T10:06:37.360Z,30.90
2017-07-06T10:09:05.681Z,31.00
2017-07-06T10:11:34.024Z,31.40
2017-07-06T10:14:02.333Z,30.00
2017-07-06T10:16:30.688Z,29.70
2017-07-06T10:18:58.996Z,29.70
2017-07-06T10:21:27.320Z,30.00
2017-07-06T10:23:55.651Z,30.30
2017-07-06T10:26:23.992Z,30.30
2017-07-06T10:28:52.328Z,30.00
2017-07-06T10:31:20.640Z,30.30
2017-07-06T10:33:49.095Z,30.40
2017-07-06T10:36:17.424Z,30.70
2017-07-06T10:38:45.782Z,31.50
2017-07-06T10:41:14.096Z,31.20
2017-07-06T10:43:42.412Z,31.50
2017-07-06T10:46:10.754Z,32.00
2017-07-06T10:48:39.071Z,32.90
2017-07-06T10:51:07.405Z,31.80
2017-07-06T10:53:35.729Z,31.40
2017-07-06T10:56:04.077Z,30.40
2017-07-06T10:58:32.392Z,29.90
2017-07-06T11:01:00.728Z,29.70
2017-07-06T11:03:29.063Z,29.30
2017-07-06T11:05:57.377Z,29.50
2017-07-06T11:08:25.735Z,28.50
2017-07-06T11:10:53.288Z,28.50
2017-07-06T11:13:21.655Z,29.60
2017-07-06T11:15:49.204Z,29.80
2017-07-06T11:18:17.535Z,29.00
2017-07-06T11:20:45.865Z,29.10
2017-07-06T11:23:13.411Z,29.00
2017-07-06T11:25:41.747Z,29.40
2017-07-06T11:28:10.114Z,29.00
2017-07-06T11:30:38.452Z,29.10
2017-07-06T11:33:06.763Z,29.10
2017-07-06T11:35:35.080Z,28.70
2017-07-06T11:38:03.448Z,28.30
2017-07-06T11:40:31.761Z,28.40
2017-07-06T11:43:00.108Z,28.00
2017-07-06T11:45:28.437Z,28.30
2017-07-06T11:47:56.768Z,28.00
2017-07-06T11:50:25.088Z,27.60
2017-07-06T11:52:53.430Z,27.30
2017-07-06T11:55:21.745Z,27.40
2017-07-06T11:57:50.060Z,27.00
2017-07-06T12:00:18.396Z,27.90
2017-07-06T12:02:46.717Z,27.50
2017-07-06T12:05:15.058Z,27.20
2017-07-06T12:07:43.381Z,28.30
2017-07-06T12:10:11.730Z,28.40
2017-07-06T12:12:40.053Z,28.10
2017-07-06T12:15:08.392Z,27.70
2017-07-06T12:17:36.700Z,28.00
2017-07-06T12:20:05.018Z,28.30
2017-07-06T12:22:33.359Z,28.40
2017-07-06T12:25:01.676Z,28.00
2017-07-06T12:27:30.014Z,27.70
2017-07-06T12:29:58.335Z,27.10
2017-07-06T12:32:26.667Z,27.10
2017-07-06T12:34:54.988Z,27.60
2017-07-06T12:37:23.341Z,28.50
2017-07-06T12:39:51.664Z,28.40
2017-07-06T12:42:19.978Z,28.20
2017-07-06T12:44:48.316Z,28.40
2017-07-06T12:47:16.627Z,28.40
2017-07-06T12:49:44.995Z,28.30
2017-07-06T12:52:13.311Z,28.50
2017-07-06T12:54:41.641Z,28.00
2017-07-06T12:57:09.956Z,28.00
2017-07-06T12:59:38.307Z,27.60
2017-07-06T13:02:06.616Z,27.00
2017-07-06T13:04:34.937Z,27.40
2017-07-06T13:07:03.269Z,26.60
2017-07-06T13:09:31.597Z,26.80
2017-07-06T13:11:59.984Z,27.70
2017-07-06T13:14:28.334Z,28.40
2017-07-06T13:16:56.681Z,28.90
2017-07-06T13:19:25.018Z,29.80
2017-07-06T13:21:53.680Z,29.90
2017-07-06T13:24:22.004Z,30.20
2017-07-06T13:26:50.367Z,31.10
2017-07-06T13:29:18.689Z,31.20
2017-07-06T13:31:47.013Z,31.90
2017-07-06T13:34:15.356Z,32.70
2017-07-06T13:36:43.677Z,33.90
2017-07-06T13:39:11.244Z,33.90
2017-07-06T13:41:39.577Z,36.80
2017-07-06T13:44:07.911Z,37.70
2017-07-06T13:46:36.235Z,38.60
2017-07-06T13:49:04.593Z,39.60
2017-07-06T13:51:32.901Z,41.50
2017-07-06T13:54:00.587Z,41.50
2017-07-06T13:56:28.916Z,48.30
2017-07-06T13:58:57.224Z,52.70
2017-07-06T14:01:25.557Z,55.90
2017-07-06T14:03:53.875Z,58.70
2017-07-06T14:06:22.280Z,61.40
2017-07-06T14:08:50.596Z,63.80
2017-07-06T14:11:18.932Z,64.50
2017-07-06T14:13:47.240Z,67.30
2017-07-06T14:16:15.576Z,68.60
2017-07-06T14:18:43.933Z,69.80
2017-07-06T14:21:12.248Z,70.90
2017-07-06T14:23:40.593Z,71.20
2017-07-06T14:26:08.972Z,69.80
2017-07-06T14:28:37.308Z,69.80
2017-07-06T14:31:05.621Z,70.00
2017-07-06T14:33:33.211Z,69.40
2017-07-06T14:36:01.544Z,67.50
2017-07-06T14:38:29.855Z,66.70
2017-07-06T14:40:58.199Z,66.60
2017-07-06T14:43:25.750Z,66.60
2017-07-06T14:45:54.087Z,63.10
2017-07-06T14:48:22.404Z,62.30
2017-07-06T14:50:50.828Z,62.90
2017-07-06T14:53:19.147Z,62.70
2017-07-06T14:55:47.556Z,61.10
2017-07-06T14:58:15.894Z,58.80
2017-07-06T15:00:44.237Z,58.40
2017-07-06T15:03:12.579Z,57.30
2017-07-06T15:05:40.969Z,55.30
2017-07-06T15:08:09.304Z,54.40
2017-07-06T15:10:37.624Z,54.10
2017-07-06T15:13:05.941Z,54.30
2017-07-06T15:15:34.308Z,53.60
2017-07-06T15:18:02.618Z,54.50
2017-07-06T15:20:30.960Z,56.00
2017-07-06T15:22:59.276Z,56.50
2017-07-06T15:25:27.614Z,56.10
2017-07-06T15:27:55.928Z,56.20
2017-07-06T15:30:24.275Z,56.20
2017-07-06T15:32:52.588Z,56.20
2017-07-06T15:35:20.905Z,56.80
2017-07-06T15:37:49.230Z,56.40
2017-07-06T15:40:17.539Z,56.20
2017-07-06T15:42:45.874Z,54.90
2017-07-06T15:45:14.183Z,53.70
2017-07-06T15:47:42.536Z,52.70
2017-07-06T15:50:10.847Z,51.20
2017-07-06T15:52:39.156Z,50.30
2017-07-06T15:55:07.492Z,50.20
2017-07-06T15:57:35.807Z,50.00
2017-07-06T16:00:04.143Z,50.70
2017-07-06T16:02:32.453Z,52.00
2017-07-06T16:05:00.799Z,52.80
2017-07-06T16:07:29.121Z,53.80
2017-07-06T16:09:56.678Z,53.80
2017-07-06T16:12:25.017Z,56.00
2017-07-06T16:14:53.336Z,55.80
2017-07-06T16:17:21.668Z,57.30
2017-07-06T16:19:49.976Z,57.00
2017-07-06T16:22:18.319Z,57.20
2017-07-06T16:24:46.644Z,57.60
2017-07-06T16:27:14.959Z,58.00
2017-07-06T16:29:43.300Z,58.00
2017-07-06T16:32:11.627Z,56.70
2017-07-06T16:34:39.962Z,55.80
2017-07-06T16:37:08.348Z,56.00
2017-07-06T16:39:36.720Z,54.00
2017-07-06T16:42:04.332Z,53.90
2017-07-06T16:44:32.665Z,51.30
2017-07-06T16:47:01.016Z,49.90
2017-07-06T16:49:29.328Z,49.60
2017-07-06T16:51:57.680Z,49.40
2017-07-06T16:54:25.993Z,50.20
2017-07-06T16:56:54.353Z,50.90
2017-07-06T16:59:22.667Z,52.60
2017-07-06T17:01:50.974Z,54.00
2017-07-06T17:04:19.308Z,55.10
2017-07-06T17:06:47.723Z,55.80
2017-07-06T17:09:15.320Z,55.80
2017-07-06T17:11:43.667Z,56.30
2017-07-06T17:14:12.012Z,56.70
2017-07-06T17:16:40.428Z,57.00
2017-07-06T17:19:08.737Z,57.90
2017-07-06T17:21:37.100Z,58.40
2017-07-06T17:24:05.422Z,58.90
2017-07-06T17:26:33.758Z,60.80
2017-07-06T17:29:02.082Z,60.80
2017-07-06T17:31:30.463Z,61.90
2017-07-06T17:33:58.792Z,62.70
2017-07-06T17:36:29.426Z,62.70
2017-07-06T17:38:58.093Z,63.00
2017-07-06T17:41:26.449Z,63.80
2017-07-06T17:43:54.810Z,64.00
2017-07-06T17:46:23.140Z,64.30
2017-07-06T17:48:51.503Z,65.40
2017-07-06T17:51:20.129Z,65.60
2017-07-06T17:53:48.497Z,66.20
2017-07-06T17:56:16.843Z,67.20
2017-07-06T17:58:44.423Z,67.20
2017-07-06T18:01:12.803Z,69.70
2017-07-06T18:03:41.142Z,71.60
2017-07-06T18:06:09.481Z,73.00
2017-07-06T18:08:37.986Z,73.80
2017-07-06T18:11:06.426Z,74.80
2017-07-06T18:13:34.761Z,75.30
2017-07-06T18:16:03.129Z,75.80
2017-07-06T18:18:31.458Z,76.70
2017-07-06T18:20:59.823Z,76.60
2017-07-06T18:23:28.173Z,76.90
2017-07-06T18:25:56.518Z,77.10
2017-07-06T18:28:24.882Z,78.00
2017-07-06T18:30:52.449Z,77.90
2017-07-06T18:33:20.805Z,78.40
2017-07-06T18:35:48.384Z,78.30
2017-07-06T18:38:16.797Z,79.10
2017-07-06T18:40:45.152Z,79.40
2017-07-06T18:43:13.482Z,80.20
2017-07-06T18:45:41.082Z,80.00
2017-07-06T18:48:09.412Z,77.60
2017-07-06T18:50:37.768Z,74.80
2017-07-06T18:53:06.095Z,76.30
2017-07-06T18:55:34.509Z,76.20
2017-07-06T18:58:03.093Z,76.00
2017-07-06T19:00:31.489Z,75.00
2017-07-06T19:02:59.831Z,73.70
2017-07-06T19:05:27.443Z,73.50
2017-07-06T19:07:55.876Z,72.40
2017-07-06T19:10:24.212Z,72.10
2017-07-06T19:12:52.639Z,72.40
2017-07-06T19:15:21.037Z,72.60
2017-07-06T19:17:49.430Z,73.10
2017-07-06T19:20:17.820Z,72.70
2017-07-06T19:22:46.497Z,71.10
2017-07-06T19:25:14.865Z,71.10
2017-07-06T19:27:43.214Z,71.10
2017-07-06T19:30:11.648Z,70.00
2017-07-06T19:32:39.960Z,69.00
2017-07-06T19:35:08.381Z,69.40
2017-07-06T19:37:36.784Z,69.20
2017-07-06T19:40:05.168Z,68.10
2017-07-06T19:42:33.549Z,67.80
2017-07-06T19:45:02.007Z,68.00
2017-07-06T19:47:30.399Z,67.80
2017-07-06T19:49:58.772Z,68.60
2017-07-06T19:52:27.209Z,69.20
2017-07-06T19:54:55.684Z,68.50
2017-07-06T19:57:24.170Z,67.90
2017-07-06T19:59:52.492Z,68.10
2017-07-06T20:02:20.832Z,67.60
2017-07-06T20:04:49.269Z,67.00
2017-07-06T20:07:17.646Z,67.60
2017-07-06T20:09:46.117Z,68.30
2017-07-06T20:12:14.511Z,69.10
2017-07-06T20:14:42.943Z,70.30
2017-07-06T20:17:11.340Z,70.50
2017-07-06T20:19:39.681Z,70.80
2017-07-06T20:22:07.997Z,71.00
2017-07-06T20:24:36.373Z,71.40
2017-07-06T20:27:04.687Z,71.40
2017-07-06T20:29:33.017Z,72.60
2017-07-06T20:32:01.430Z,73.10
2017-07-06T20:34:29.874Z,73.70
2017-07-06T20:36:58.236Z,74.40
2017-07-06T20:39:26.648Z,74.50
2017-07-06T20:41:54.356Z,74.50
2017-07-06T20:44:22.749Z,74.90
2017-07-06T20:46:51.118Z,74.80
2017-07-06T20:49:19.449Z,74.90
2017-07-06T20:51:47.776Z,74.80
2017-07-06T20:54:16.128Z,76.10
2017-07-06T20:56:44.443Z,75.20
2017-07-06T20:59:12.782Z,75.30
2017-07-06T21:01:41.108Z,75.60
2017-07-06T21:04:09.435Z,75.90
2017-07-06T21:06:37.763Z,76.40
2017-07-06T21:09:06.095Z,77.20
2017-07-06T21:11:34.532Z,77.40
2017-07-06T21:14:02.872Z,77.20
2017-07-06T21:16:31.283Z,77.50
2017-07-06T21:18:59.599Z,77.70
2017-07-06T21:21:27.944Z,77.70
2017-07-06T21:23:55.527Z,77.70
2017-07-06T21:26:23.864Z,77.80
2017-07-06T21:28:52.270Z,78.10
2017-07-06T21:31:20.872Z,78.30
2017-07-06T21:33:49.200Z,78.50
2017-07-06T21:36:17.515Z,78.20
2017-07-06T21:38:45.848Z,78.00
2017-07-06T21:41:14.155Z,78.00
2017-07-06T21:43:42.483Z,77.30
2017-07-06T21:46:10.801Z,77.60
2017-07-06T21:48:39.195Z,77.50
2017-07-06T21:51:07.509Z,77.50
2017-07-06T21:53:35.860Z,77.30
2017-07-06T21:56:04.173Z,77.00
2017-07-06T21:58:31.741Z,77.00
2017-07-06T22:01:00.092Z,76.80
2017-07-06T22:03:28.421Z,76.90
2017-07-06T22:05:56.761Z,77.40
2017-07-06T22:08:25.080Z,77.80
2017-07-06T22:10:53.421Z,76.90
2017-07-06T22:13:21.738Z,77.40
2017-07-06T22:15:50.075Z,78.70
2017-07-06T22:18:18.384Z,79.40
2017-07-06T22:20:46.741Z,79.60
2017-07-06T22:23:15.091Z,78.20
2017-07-06T22:25:43.428Z,75.90
2017-07-06T22:28:11.774Z,74.70
2017-07-06T22:30:40.089Z,73.20
2017-07-06T22:33:08.434Z,72.30
2017-07-06T22:35:36.744Z,71.30
2017-07-06T22:38:05.079Z,70.50
2017-07-06T22:40:33.411Z,70.70
2017-07-06T22:43:01.728Z,71.10
2017-07-06T22:45:30.073Z,71.90
2017-07-06T22:47:58.388Z,70.60
2017-07-06T22:50:26.732Z,70.00
2017-07-06T22:52:55.051Z,68.90
2017-07-06T22:55:23.389Z,68.40
2017-07-06T22:57:51.698Z,68.10
2017-07-06T23:00:20.041Z,67.80
2017-07-06T23:02:48.407Z,68.00
2017-07-06T23:05:16.720Z,68.30
2017-07-06T23:07:45.125Z,68.70
2017-07-06T23:10:13.090Z,68.80
2017-07-06T23:12:41.515Z,69.30
2017-07-06T23:15:09.844Z,68.70
2017-07-06T23:17:38.349Z,68.80
2017-07-06T23:20:06.968Z,70.30
2017-07-06T23:22:35.604Z,71.00
2017-07-06T23:25:04.405Z,71.80
2017-07-06T23:27:32.741Z,72.30
2017-07-06T23:30:01.091Z,72.80
2017-07-06T23:32:29.404Z,73.30
2017-07-06T23:34:57.741Z,73.90
2017-07-06T23:37:26.129Z,74.80
2017-07-06T23:39:54.547Z,75.20
2017-07-06T23:42:22.112Z,75.20
2017-07-06T23:44:50.453Z,76.10
2017-07-06T23:47:18.769Z,76.30
2017-07-06T23:49:47.086Z,77.00
2017-07-06T23:52:15.425Z,77.40
2017-07-06T23:54:43.746Z,78.10
2017-07-06T23:57:12.076Z,78.20
2017-07-06T23:59:40.387Z,78.30
